sensor_id;sensor_type;location;lat;lon;timestamp;pressure;altitude;pressure_sealevel;temperature;humidity
50302;BME280;36550;50.472;19.744;2023-06-26T00:01:01;98145.82;;;14.78;74.25
50302;BME280;36550;50.472;19.744;2023-06-26T00:03:45;98144.02;;;14.76;74.11
50302;BME280;36550;50.472;19.744;2023-06-26T00:06:29;98144.69;;;14.75;74.30
50302;BME280;36550;50.472;19.744;2023-06-26T00:09:13;98145.63;;;14.74;74.42
50302;BME280;36550;50.472;19.744;2023-06-26T00:11:58;98143.63;;;14.72;74.50
50302;BME280;36550;50.472;19.744;2023-06-26T00:14:42;98144.88;;;14.69;74.45
50302;BME280;36550;50.472;19.744;2023-06-26T00:17:27;98143.77;;;14.66;74.63
50302;BME280;36550;50.472;19.744;2023-06-26T00:20:11;98140.08;;;14.61;74.45
50302;BME280;36550;50.472;19.744;2023-06-26T00:22:55;98141.55;;;14.59;74.39
50302;BME280;36550;50.472;19.744;2023-06-26T00:25:43;98145.93;;;14.57;74.60
50302;BME280;36550;50.472;19.744;2023-06-26T00:28:27;98142.80;;;14.57;74.79
50302;BME280;36550;50.472;19.744;2023-06-26T00:31:11;98140.58;;;14.57;75.00
50302;BME280;36550;50.472;19.744;2023-06-26T00:33:55;98137.86;;;14.56;74.94
50302;BME280;36550;50.472;19.744;2023-06-26T00:36:39;98142.61;;;14.54;74.91
50302;BME280;36550;50.472;19.744;2023-06-26T00:39:27;98145.71;;;14.52;74.93
50302;BME280;36550;50.472;19.744;2023-06-26T00:42:11;98144.95;;;14.48;74.88
50302;BME280;36550;50.472;19.744;2023-06-26T00:44:55;98145.27;;;14.47;74.94
50302;BME280;36550;50.472;19.744;2023-06-26T00:47:39;98145.86;;;14.48;75.16
50302;BME280;36550;50.472;19.744;2023-06-26T00:50:24;98142.89;;;14.47;75.15
50302;BME280;36550;50.472;19.744;2023-06-26T00:53:09;98141.45;;;14.44;75.14
50302;BME280;36550;50.472;19.744;2023-06-26T00:55:54;98139.91;;;14.42;75.08
50302;BME280;36550;50.472;19.744;2023-06-26T00:58:38;98137.36;;;14.39;75.09
50302;BME280;36550;50.472;19.744;2023-06-26T01:01:22;98137.61;;;14.38;75.15
50302;BME280;36550;50.472;19.744;2023-06-26T01:04:09;98134.91;;;14.37;75.20
50302;BME280;36550;50.472;19.744;2023-06-26T01:07:01;98136.82;;;14.37;75.24
50302;BME280;36550;50.472;19.744;2023-06-26T01:09:47;98131.77;;;14.36;75.50
50302;BME280;36550;50.472;19.744;2023-06-26T01:12:32;98130.46;;;14.34;75.49
50302;BME280;36550;50.472;19.744;2023-06-26T01:15:16;98124.90;;;14.31;75.46
50302;BME280;36550;50.472;19.744;2023-06-26T01:18:00;98127.64;;;14.29;75.42
50302;BME280;36550;50.472;19.744;2023-06-26T01:20:47;98128.31;;;14.28;75.44
50302;BME280;36550;50.472;19.744;2023-06-26T01:23:38;98126.15;;;14.27;75.40
50302;BME280;36550;50.472;19.744;2023-06-26T01:26:29;98127.77;;;14.27;75.39
50302;BME280;36550;50.472;19.744;2023-06-26T01:29:20;98122.66;;;14.25;75.48
50302;BME280;36550;50.472;19.744;2023-06-26T01:32:07;98123.27;;;14.23;75.52
50302;BME280;36550;50.472;19.744;2023-06-26T01:34:52;98117.39;;;14.19;75.47
50302;BME280;36550;50.472;19.744;2023-06-26T01:37:36;98115.50;;;14.16;75.52
50302;BME280;36550;50.472;19.744;2023-06-26T01:40:20;98114.52;;;14.15;75.60
50302;BME280;36550;50.472;19.744;2023-06-26T01:43:06;98113.35;;;14.15;75.66
50302;BME280;36550;50.472;19.744;2023-06-26T01:45:59;98112.87;;;14.15;75.63
50302;BME280;36550;50.472;19.744;2023-06-26T01:51:53;98109.64;;;14.11;75.70
50302;BME280;36550;50.472;19.744;2023-06-26T01:54:49;98109.98;;;14.08;75.81
50302;BME280;36550;50.472;19.744;2023-06-26T01:57:36;98108.02;;;14.05;75.71
50302;BME280;36550;50.472;19.744;2023-06-26T02:00:23;98110.65;;;14.04;75.72
50302;BME280;36550;50.472;19.744;2023-06-26T02:03:08;98110.48;;;14.04;75.76
50302;BME280;36550;50.472;19.744;2023-06-26T02:05:52;98108.96;;;14.04;75.71
50302;BME280;36550;50.472;19.744;2023-06-26T02:08:36;98104.88;;;14.02;75.72
50302;BME280;36550;50.472;19.744;2023-06-26T02:11:20;98105.08;;;13.99;75.80
50302;BME280;36550;50.472;19.744;2023-06-26T02:14:04;98102.67;;;13.96;75.65
50302;BME280;36550;50.472;19.744;2023-06-26T02:16:48;98102.81;;;13.94;75.77
50302;BME280;36550;50.472;19.744;2023-06-26T02:19:32;98104.27;;;13.91;75.85
50302;BME280;36550;50.472;19.744;2023-06-26T02:22:16;98104.76;;;13.91;75.77
50302;BME280;36550;50.472;19.744;2023-06-26T02:25:00;98099.77;;;13.89;75.61
50302;BME280;36550;50.472;19.744;2023-06-26T02:27:44;98097.07;;;13.86;75.83
50302;BME280;36550;50.472;19.744;2023-06-26T02:30:29;98100.10;;;13.82;76.02
50302;BME280;36550;50.472;19.744;2023-06-26T02:33:13;98103.18;;;13.79;76.07
50302;BME280;36550;50.472;19.744;2023-06-26T02:35:57;98102.58;;;13.75;76.09
50302;BME280;36550;50.472;19.744;2023-06-26T02:38:40;98103.03;;;13.72;76.29
50302;BME280;36550;50.472;19.744;2023-06-26T02:41:25;98106.63;;;13.73;76.34
50302;BME280;36550;50.472;19.744;2023-06-26T02:44:10;98106.52;;;13.73;76.23
50302;BME280;36550;50.472;19.744;2023-06-26T02:46:55;98105.73;;;13.73;76.34
50302;BME280;36550;50.472;19.744;2023-06-26T02:49:40;98104.90;;;13.74;76.43
50302;BME280;36550;50.472;19.744;2023-06-26T02:52:23;98100.26;;;13.74;76.36
50302;BME280;36550;50.472;19.744;2023-06-26T02:55:08;98104.48;;;13.75;76.50
50302;BME280;36550;50.472;19.744;2023-06-26T02:57:52;98102.02;;;13.76;76.63
50302;BME280;36550;50.472;19.744;2023-06-26T03:00:36;98101.11;;;13.77;76.71
50302;BME280;36550;50.472;19.744;2023-06-26T03:03:24;98101.10;;;13.82;76.81
50302;BME280;36550;50.472;19.744;2023-06-26T03:06:09;98100.88;;;13.87;76.86
50302;BME280;36550;50.472;19.744;2023-06-26T03:08:53;98099.54;;;13.92;76.88
50302;BME280;36550;50.472;19.744;2023-06-26T03:11:38;98101.16;;;14.06;76.97
50302;BME280;36550;50.472;19.744;2023-06-26T03:14:22;98101.75;;;14.34;77.08
50302;BME280;36550;50.472;19.744;2023-06-26T03:17:06;98102.52;;;14.60;76.71
50302;BME280;36550;50.472;19.744;2023-06-26T03:19:51;98100.89;;;14.74;76.57
50302;BME280;36550;50.472;19.744;2023-06-26T03:22:36;98101.55;;;14.83;76.38
50302;BME280;36550;50.472;19.744;2023-06-26T03:25:19;98104.68;;;14.88;76.36
50302;BME280;36550;50.472;19.744;2023-06-26T03:28:03;98101.79;;;14.91;76.26
50302;BME280;36550;50.472;19.744;2023-06-26T03:30:47;98100.11;;;14.94;76.28
50302;BME280;36550;50.472;19.744;2023-06-26T03:33:31;98101.79;;;14.94;76.09
50302;BME280;36550;50.472;19.744;2023-06-26T03:36:15;98097.79;;;14.95;76.28
50302;BME280;36550;50.472;19.744;2023-06-26T03:39:00;98098.38;;;14.98;76.22
50302;BME280;36550;50.472;19.744;2023-06-26T03:41:44;98102.88;;;15.02;76.21
50302;BME280;36550;50.472;19.744;2023-06-26T03:44:28;98105.74;;;15.06;76.19
50302;BME280;36550;50.472;19.744;2023-06-26T03:47:13;98104.90;;;15.10;76.30
50302;BME280;36550;50.472;19.744;2023-06-26T03:49:57;98104.75;;;15.16;76.26
50302;BME280;36550;50.472;19.744;2023-06-26T03:52:41;98104.45;;;15.22;76.30
50302;BME280;36550;50.472;19.744;2023-06-26T03:55:25;98105.45;;;15.29;76.19
50302;BME280;36550;50.472;19.744;2023-06-26T03:58:09;98105.33;;;15.36;76.16
50302;BME280;36550;50.472;19.744;2023-06-26T04:00:53;98102.67;;;15.43;76.24
50302;BME280;36550;50.472;19.744;2023-06-26T04:03:39;98102.22;;;15.51;76.26
50302;BME280;36550;50.472;19.744;2023-06-26T04:06:23;98103.69;;;15.58;76.32
50302;BME280;36550;50.472;19.744;2023-06-26T04:09:07;98106.23;;;15.63;76.11
50302;BME280;36550;50.472;19.744;2023-06-26T04:11:51;98107.66;;;15.69;76.27
50302;BME280;36550;50.472;19.744;2023-06-26T04:14:36;98108.07;;;15.76;76.30
50302;BME280;36550;50.472;19.744;2023-06-26T04:17:20;98108.38;;;15.85;76.25
50302;BME280;36550;50.472;19.744;2023-06-26T04:20:06;98112.07;;;15.92;76.37
50302;BME280;36550;50.472;19.744;2023-06-26T04:22:50;98110.95;;;16.01;76.48
50302;BME280;36550;50.472;19.744;2023-06-26T04:25:34;98107.27;;;16.08;76.33
50302;BME280;36550;50.472;19.744;2023-06-26T04:28:18;98106.16;;;16.15;76.41
50302;BME280;36550;50.472;19.744;2023-06-26T04:31:03;98105.09;;;16.21;76.47
50302;BME280;36550;50.472;19.744;2023-06-26T04:33:50;98103.55;;;16.27;76.52
50302;BME280;36550;50.472;19.744;2023-06-26T04:36:34;98105.69;;;16.36;76.56
50302;BME280;36550;50.472;19.744;2023-06-26T04:39:23;98108.09;;;16.46;76.67
50302;BME280;36550;50.472;19.744;2023-06-26T04:42:07;98108.90;;;16.55;76.77
50302;BME280;36550;50.472;19.744;2023-06-26T04:44:51;98104.95;;;16.65;76.75
50302;BME280;36550;50.472;19.744;2023-06-26T04:47:35;98102.95;;;16.74;76.80
50302;BME280;36550;50.472;19.744;2023-06-26T04:50:19;98103.62;;;16.82;76.99
50302;BME280;36550;50.472;19.744;2023-06-26T04:53:03;98100.78;;;16.90;76.99
50302;BME280;36550;50.472;19.744;2023-06-26T04:55:47;98100.83;;;17.02;77.00
50302;BME280;36550;50.472;19.744;2023-06-26T04:58:31;98099.92;;;17.22;77.06
50302;BME280;36550;50.472;19.744;2023-06-26T05:01:16;98097.98;;;17.49;77.17
50302;BME280;36550;50.472;19.744;2023-06-26T05:04:00;98102.48;;;17.78;77.10
50302;BME280;36550;50.472;19.744;2023-06-26T05:06:44;98099.93;;;18.09;77.31
50302;BME280;36550;50.472;19.744;2023-06-26T05:09:28;98098.06;;;18.41;77.15
50302;BME280;36550;50.472;19.744;2023-06-26T05:12:12;98099.41;;;18.72;77.04
50302;BME280;36550;50.472;19.744;2023-06-26T05:14:56;98097.09;;;19.04;76.86
50302;BME280;36550;50.472;19.744;2023-06-26T05:17:41;98098.05;;;19.37;76.48
50302;BME280;36550;50.472;19.744;2023-06-26T05:20:24;98094.61;;;19.70;76.14
50302;BME280;36550;50.472;19.744;2023-06-26T05:23:10;98098.70;;;19.99;75.28
50302;BME280;36550;50.472;19.744;2023-06-26T05:25:55;98099.08;;;20.26;74.61
50302;BME280;36550;50.472;19.744;2023-06-26T05:28:39;98099.23;;;20.50;74.25
50302;BME280;36550;50.472;19.744;2023-06-26T05:31:24;98101.11;;;20.71;73.56
50302;BME280;36550;50.472;19.744;2023-06-26T05:34:10;98101.41;;;20.93;73.02
50302;BME280;36550;50.472;19.744;2023-06-26T05:36:58;98103.30;;;21.14;72.49
50302;BME280;36550;50.472;19.744;2023-06-26T05:39:43;98103.84;;;21.35;71.81
50302;BME280;36550;50.472;19.744;2023-06-26T05:42:27;98103.70;;;21.54;71.19
50302;BME280;36550;50.472;19.744;2023-06-26T05:45:12;98107.46;;;21.74;70.88
50302;BME280;36550;50.472;19.744;2023-06-26T05:47:56;98107.09;;;21.96;70.50
50302;BME280;36550;50.472;19.744;2023-06-26T05:50:41;98106.02;;;22.17;70.02
50302;BME280;36550;50.472;19.744;2023-06-26T05:53:26;98105.10;;;22.38;69.40
50302;BME280;36550;50.472;19.744;2023-06-26T05:56:11;98099.13;;;22.59;68.93
50302;BME280;36550;50.472;19.744;2023-06-26T05:58:56;98096.06;;;22.80;68.41
50302;BME280;36550;50.472;19.744;2023-06-26T06:01:41;98097.03;;;23.02;68.03
50302;BME280;36550;50.472;19.744;2023-06-26T06:04:25;98097.97;;;23.23;66.82
50302;BME280;36550;50.472;19.744;2023-06-26T06:07:09;98099.95;;;23.38;66.61
50302;BME280;36550;50.472;19.744;2023-06-26T06:09:53;98096.91;;;23.53;66.44
50302;BME280;36550;50.472;19.744;2023-06-26T06:12:37;98097.80;;;23.67;66.01
50302;BME280;36550;50.472;19.744;2023-06-26T06:15:21;98097.44;;;23.77;65.28
50302;BME280;36550;50.472;19.744;2023-06-26T06:18:05;98093.40;;;23.82;63.81
50302;BME280;36550;50.472;19.744;2023-06-26T06:20:49;98093.44;;;23.85;63.77
50302;BME280;36550;50.472;19.744;2023-06-26T06:23:33;98091.39;;;23.85;62.80
50302;BME280;36550;50.472;19.744;2023-06-26T06:26:17;98094.55;;;23.82;62.14
50302;BME280;36550;50.472;19.744;2023-06-26T06:29:01;98089.80;;;23.77;61.51
50302;BME280;36550;50.472;19.744;2023-06-26T06:31:45;98087.74;;;23.70;60.93
50302;BME280;36550;50.472;19.744;2023-06-26T06:34:30;98088.52;;;23.64;60.70
50302;BME280;36550;50.472;19.744;2023-06-26T06:37:14;98088.42;;;23.60;60.39
50302;BME280;36550;50.472;19.744;2023-06-26T06:39:58;98091.64;;;23.55;59.31
50302;BME280;36550;50.472;19.744;2023-06-26T06:42:43;98092.04;;;23.47;58.83
50302;BME280;36550;50.472;19.744;2023-06-26T06:45:27;98092.83;;;23.44;59.02
50302;BME280;36550;50.472;19.744;2023-06-26T06:48:11;98094.72;;;23.40;58.75
50302;BME280;36550;50.472;19.744;2023-06-26T06:50:55;98092.95;;;23.36;58.49
50302;BME280;36550;50.472;19.744;2023-06-26T06:53:39;98094.54;;;23.34;58.03
50302;BME280;36550;50.472;19.744;2023-06-26T06:56:23;98092.17;;;23.25;56.71
50302;BME280;36550;50.472;19.744;2023-06-26T06:59:07;98094.78;;;23.20;56.72
50302;BME280;36550;50.472;19.744;2023-06-26T07:01:52;98092.69;;;23.17;56.57
50302;BME280;36550;50.472;19.744;2023-06-26T07:04:36;98094.70;;;23.16;56.33
50302;BME280;36550;50.472;19.744;2023-06-26T07:07:20;98095.80;;;23.17;56.65
50302;BME280;36550;50.472;19.744;2023-06-26T07:10:05;98096.08;;;23.18;56.46
50302;BME280;36550;50.472;19.744;2023-06-26T07:12:51;98094.73;;;23.19;55.80
50302;BME280;36550;50.472;19.744;2023-06-26T07:15:35;98098.80;;;23.17;55.12
50302;BME280;36550;50.472;19.744;2023-06-26T07:18:19;98099.23;;;23.17;55.28
50302;BME280;36550;50.472;19.744;2023-06-26T07:21:04;98095.67;;;23.17;55.24
50302;BME280;36550;50.472;19.744;2023-06-26T07:23:48;98094.70;;;23.20;55.29
50302;BME280;36550;50.472;19.744;2023-06-26T07:26:32;98092.62;;;23.23;55.06
50302;BME280;36550;50.472;19.744;2023-06-26T07:29:16;98096.08;;;23.23;54.89
50302;BME280;36550;50.472;19.744;2023-06-26T07:32:00;98095.37;;;23.24;54.39
50302;BME280;36550;50.472;19.744;2023-06-26T07:34:44;98098.09;;;23.22;53.54
50302;BME280;36550;50.472;19.744;2023-06-26T07:37:28;98098.00;;;23.22;53.62
50302;BME280;36550;50.472;19.744;2023-06-26T07:40:12;98096.12;;;23.24;54.01
50302;BME280;36550;50.472;19.744;2023-06-26T07:42:57;98093.36;;;23.24;53.47
50302;BME280;36550;50.472;19.744;2023-06-26T07:45:42;98091.14;;;23.24;53.31
50302;BME280;36550;50.472;19.744;2023-06-26T07:48:26;98089.02;;;23.25;53.56
50302;BME280;36550;50.472;19.744;2023-06-26T07:51:10;98092.21;;;23.28;53.85
50302;BME280;36550;50.472;19.744;2023-06-26T07:53:54;98088.16;;;23.30;53.66
50302;BME280;36550;50.472;19.744;2023-06-26T07:56:52;98088.93;;;23.32;53.52
50302;BME280;36550;50.472;19.744;2023-06-26T07:59:38;98088.30;;;23.34;53.71
50302;BME280;36550;50.472;19.744;2023-06-26T08:02:22;98087.42;;;23.37;53.51
50302;BME280;36550;50.472;19.744;2023-06-26T08:05:07;98087.79;;;23.40;53.13
50302;BME280;36550;50.472;19.744;2023-06-26T08:07:51;98088.95;;;23.42;52.78
50302;BME280;36550;50.472;19.744;2023-06-26T08:10:35;98090.11;;;23.46;52.49
50302;BME280;36550;50.472;19.744;2023-06-26T08:13:20;98084.02;;;23.51;52.67
50302;BME280;36550;50.472;19.744;2023-06-26T08:16:04;98084.27;;;23.57;52.50
50302;BME280;36550;50.472;19.744;2023-06-26T08:18:47;98083.56;;;23.63;52.53
50302;BME280;36550;50.472;19.744;2023-06-26T08:21:32;98080.42;;;23.73;52.69
50302;BME280;36550;50.472;19.744;2023-06-26T08:24:16;98081.88;;;23.81;52.40
50302;BME280;36550;50.472;19.744;2023-06-26T08:27:04;98083.15;;;23.91;52.36
50302;BME280;36550;50.472;19.744;2023-06-26T08:29:51;98080.07;;;23.98;51.90
50302;BME280;36550;50.472;19.744;2023-06-26T08:32:35;98082.94;;;24.07;51.83
50302;BME280;36550;50.472;19.744;2023-06-26T08:35:19;98083.98;;;24.12;51.58
50302;BME280;36550;50.472;19.744;2023-06-26T08:38:03;98075.93;;;24.14;51.83
50302;BME280;36550;50.472;19.744;2023-06-26T08:40:48;98078.96;;;24.15;51.53
50302;BME280;36550;50.472;19.744;2023-06-26T08:43:32;98082.70;;;24.11;51.05
50302;BME280;36550;50.472;19.744;2023-06-26T08:46:16;98089.20;;;23.99;49.49
50302;BME280;36550;50.472;19.744;2023-06-26T08:49:05;98084.63;;;23.90;49.94
50302;BME280;36550;50.472;19.744;2023-06-26T08:51:54;98085.11;;;23.82;49.14
50302;BME280;36550;50.472;19.744;2023-06-26T08:54:45;98079.91;;;23.74;49.35
50302;BME280;36550;50.472;19.744;2023-06-26T08:57:32;98079.09;;;23.77;49.89
50302;BME280;36550;50.472;19.744;2023-06-26T09:00:18;98079.20;;;23.85;49.92
50302;BME280;36550;50.472;19.744;2023-06-26T09:03:03;98078.38;;;23.89;49.90
50302;BME280;36550;50.472;19.744;2023-06-26T09:05:48;98076.98;;;23.93;50.01
50302;BME280;36550;50.472;19.744;2023-06-26T09:08:32;98077.27;;;23.94;49.71
50302;BME280;36550;50.472;19.744;2023-06-26T09:11:16;98078.56;;;23.94;49.61
50302;BME280;36550;50.472;19.744;2023-06-26T09:14:00;98078.38;;;23.93;49.97
50302;BME280;36550;50.472;19.744;2023-06-26T09:16:45;98080.72;;;23.92;49.69
50302;BME280;36550;50.472;19.744;2023-06-26T09:19:29;98078.38;;;23.91;49.89
50302;BME280;36550;50.472;19.744;2023-06-26T09:22:14;98080.70;;;23.94;49.50
50302;BME280;36550;50.472;19.744;2023-06-26T09:24:58;98073.95;;;23.97;49.32
50302;BME280;36550;50.472;19.744;2023-06-26T09:27:43;98069.64;;;24.04;49.16
50302;BME280;36550;50.472;19.744;2023-06-26T09:30:27;98064.55;;;24.13;48.79
50302;BME280;36550;50.472;19.744;2023-06-26T09:33:21;98069.05;;;24.26;49.02
50302;BME280;36550;50.472;19.744;2023-06-26T09:36:06;98069.82;;;24.34;48.72
50302;BME280;36550;50.472;19.744;2023-06-26T09:38:50;98067.88;;;24.37;48.67
50302;BME280;36550;50.472;19.744;2023-06-26T09:41:35;98071.47;;;24.39;48.62
50302;BME280;36550;50.472;19.744;2023-06-26T09:44:19;98070.81;;;24.37;48.32
50302;BME280;36550;50.472;19.744;2023-06-26T09:47:04;98069.86;;;24.37;48.62
50302;BME280;36550;50.472;19.744;2023-06-26T09:49:48;98066.02;;;24.38;48.19
50302;BME280;36550;50.472;19.744;2023-06-26T09:52:32;98062.88;;;24.40;48.32
50302;BME280;36550;50.472;19.744;2023-06-26T09:55:19;98063.63;;;24.46;48.10
50302;BME280;36550;50.472;19.744;2023-06-26T09:58:05;98060.77;;;24.52;47.86
50302;BME280;36550;50.472;19.744;2023-06-26T10:00:49;98059.54;;;24.55;47.63
50302;BME280;36550;50.472;19.744;2023-06-26T10:03:35;98060.30;;;24.59;47.83
50302;BME280;36550;50.472;19.744;2023-06-26T10:06:22;98054.39;;;24.61;48.11
50302;BME280;36550;50.472;19.744;2023-06-26T10:09:08;98054.23;;;24.61;47.86
50302;BME280;36550;50.472;19.744;2023-06-26T10:12:02;98055.37;;;24.52;46.81
50302;BME280;36550;50.472;19.744;2023-06-26T10:14:51;98054.32;;;24.41;47.24
50302;BME280;36550;50.472;19.744;2023-06-26T10:17:37;98051.09;;;24.37;47.39
50302;BME280;36550;50.472;19.744;2023-06-26T10:20:23;98044.04;;;24.35;47.35
50302;BME280;36550;50.472;19.744;2023-06-26T10:23:10;98041.46;;;24.32;47.26
50302;BME280;36550;50.472;19.744;2023-06-26T10:25:58;98039.04;;;24.31;47.36
50302;BME280;36550;50.472;19.744;2023-06-26T10:28:43;98034.02;;;24.30;47.20
50302;BME280;36550;50.472;19.744;2023-06-26T10:31:29;98024.60;;;24.28;46.99
50302;BME280;36550;50.472;19.744;2023-06-26T10:34:14;98025.88;;;24.25;46.95
50302;BME280;36550;50.472;19.744;2023-06-26T10:37:00;98025.38;;;24.24;47.11
50302;BME280;36550;50.472;19.744;2023-06-26T10:39:52;98022.35;;;24.25;47.24
50302;BME280;36550;50.472;19.744;2023-06-26T10:42:40;98018.81;;;24.23;46.40
50302;BME280;36550;50.472;19.744;2023-06-26T10:45:28;98012.55;;;24.23;46.66
50302;BME280;36550;50.472;19.744;2023-06-26T10:48:15;98011.30;;;24.25;46.78
50302;BME280;36550;50.472;19.744;2023-06-26T10:51:13;98005.90;;;24.28;47.24
50302;BME280;36550;50.472;19.744;2023-06-26T10:53:57;98002.58;;;24.31;47.18
50302;BME280;36550;50.472;19.744;2023-06-26T10:56:46;97999.92;;;24.35;46.86
50302;BME280;36550;50.472;19.744;2023-06-26T10:59:31;98005.95;;;24.39;46.56
50302;BME280;36550;50.472;19.744;2023-06-26T11:02:15;98003.95;;;24.43;46.71
50302;BME280;36550;50.472;19.744;2023-06-26T11:04:59;98003.39;;;24.46;46.63
50302;BME280;36550;50.472;19.744;2023-06-26T11:08:02;98007.23;;;24.51;46.26
50302;BME280;36550;50.472;19.744;2023-06-26T11:10:53;98008.04;;;24.57;46.42
50302;BME280;36550;50.472;19.744;2023-06-26T11:13:40;98005.63;;;24.69;46.30
50302;BME280;36550;50.472;19.744;2023-06-26T11:16:25;98004.17;;;24.88;45.74
50302;BME280;36550;50.472;19.744;2023-06-26T11:19:10;98003.86;;;25.11;45.91
50302;BME280;36550;50.472;19.744;2023-06-26T11:21:58;98001.70;;;25.36;46.17
50302;BME280;36550;50.472;19.744;2023-06-26T11:24:43;98009.50;;;25.53;45.05
50302;BME280;36550;50.472;19.744;2023-06-26T11:27:40;98010.08;;;25.61;44.77
50302;BME280;36550;50.472;19.744;2023-06-26T11:30:26;98006.84;;;25.70;44.66
50302;BME280;36550;50.472;19.744;2023-06-26T11:33:10;98002.99;;;25.74;44.46
50302;BME280;36550;50.472;19.744;2023-06-26T11:35:54;98004.04;;;25.71;44.42
50302;BME280;36550;50.472;19.744;2023-06-26T11:38:38;98002.38;;;25.65;43.89
50302;BME280;36550;50.472;19.744;2023-06-26T11:41:25;98000.16;;;25.53;43.88
50302;BME280;36550;50.472;19.744;2023-06-26T11:44:10;97999.41;;;25.38;43.65
50302;BME280;36550;50.472;19.744;2023-06-26T11:46:54;98001.38;;;25.27;43.78
50302;BME280;36550;50.472;19.744;2023-06-26T11:49:42;97996.01;;;25.18;43.66
50302;BME280;36550;50.472;19.744;2023-06-26T11:52:26;97993.10;;;25.11;43.73
50302;BME280;36550;50.472;19.744;2023-06-26T11:55:10;97988.83;;;25.08;43.81
50302;BME280;36550;50.472;19.744;2023-06-26T11:57:56;97990.67;;;25.08;43.84
50302;BME280;36550;50.472;19.744;2023-06-26T12:00:43;97989.35;;;25.09;43.99
50302;BME280;36550;50.472;19.744;2023-06-26T12:03:27;97986.48;;;25.13;44.07
50302;BME280;36550;50.472;19.744;2023-06-26T12:06:12;97983.22;;;25.18;44.24
50302;BME280;36550;50.472;19.744;2023-06-26T12:08:57;97984.77;;;25.25;44.48
50302;BME280;36550;50.472;19.744;2023-06-26T12:11:43;97982.06;;;25.31;44.09
50302;BME280;36550;50.472;19.744;2023-06-26T12:14:28;97978.92;;;25.41;44.38
50302;BME280;36550;50.472;19.744;2023-06-26T12:17:13;97978.50;;;25.51;44.13
50302;BME280;36550;50.472;19.744;2023-06-26T12:19:57;97974.70;;;25.61;44.54
50302;BME280;36550;50.472;19.744;2023-06-26T12:22:41;97968.77;;;25.69;44.57
50302;BME280;36550;50.472;19.744;2023-06-26T12:25:25;97966.42;;;25.69;44.61
50302;BME280;36550;50.472;19.744;2023-06-26T12:28:16;97964.09;;;25.69;45.01
50302;BME280;36550;50.472;19.744;2023-06-26T12:31:15;97964.61;;;25.63;44.98
50302;BME280;36550;50.472;19.744;2023-06-26T12:34:00;97968.11;;;25.50;44.53
50302;BME280;36550;50.472;19.744;2023-06-26T12:36:47;97967.83;;;25.32;43.90
50302;BME280;36550;50.472;19.744;2023-06-26T12:39:49;97963.81;;;25.21;44.42
50302;BME280;36550;50.472;19.744;2023-06-26T12:42:33;97959.98;;;25.15;44.89
50302;BME280;36550;50.472;19.744;2023-06-26T12:45:17;97957.36;;;25.12;45.00
50302;BME280;36550;50.472;19.744;2023-06-26T12:48:10;97953.82;;;25.13;45.35
50302;BME280;36550;50.472;19.744;2023-06-26T12:50:54;97952.08;;;25.14;45.56
50302;BME280;36550;50.472;19.744;2023-06-26T12:53:39;97947.38;;;25.18;45.84
50302;BME280;36550;50.472;19.744;2023-06-26T12:56:26;97943.85;;;25.21;45.78
50302;BME280;36550;50.472;19.744;2023-06-26T12:59:10;97938.40;;;25.21;45.81
50302;BME280;36550;50.472;19.744;2023-06-26T13:01:54;97939.33;;;25.19;45.90
50302;BME280;36550;50.472;19.744;2023-06-26T13:04:38;97939.79;;;25.16;45.84
50302;BME280;36550;50.472;19.744;2023-06-26T13:07:25;97939.61;;;25.15;45.99
50302;BME280;36550;50.472;19.744;2023-06-26T13:10:09;97940.12;;;25.12;45.31
50302;BME280;36550;50.472;19.744;2023-06-26T13:12:53;97935.02;;;25.09;45.37
50302;BME280;36550;50.472;19.744;2023-06-26T13:15:37;97929.23;;;25.08;45.83
50302;BME280;36550;50.472;19.744;2023-06-26T13:18:22;97932.10;;;25.07;45.94
50302;BME280;36550;50.472;19.744;2023-06-26T13:21:06;97933.63;;;25.07;45.70
50302;BME280;36550;50.472;19.744;2023-06-26T13:23:50;97934.05;;;25.10;45.09
50302;BME280;36550;50.472;19.744;2023-06-26T13:26:34;97933.55;;;25.20;45.54
50302;BME280;36550;50.472;19.744;2023-06-26T13:29:18;97925.14;;;25.37;45.16
50302;BME280;36550;50.472;19.744;2023-06-26T13:32:02;97921.85;;;25.54;45.34
50302;BME280;36550;50.472;19.744;2023-06-26T13:34:46;97920.83;;;25.65;45.24
50302;BME280;36550;50.472;19.744;2023-06-26T13:37:32;97918.75;;;25.72;45.16
50302;BME280;36550;50.472;19.744;2023-06-26T13:40:18;97917.75;;;25.75;45.32
50302;BME280;36550;50.472;19.744;2023-06-26T13:43:01;97914.67;;;25.74;45.06
50302;BME280;36550;50.472;19.744;2023-06-26T13:45:47;97911.76;;;25.72;44.39
50302;BME280;36550;50.472;19.744;2023-06-26T13:48:31;97912.34;;;25.69;44.28
50302;BME280;36550;50.472;19.744;2023-06-26T13:51:15;97905.54;;;25.65;44.42
50302;BME280;36550;50.472;19.744;2023-06-26T13:53:59;97901.55;;;25.57;44.35
50302;BME280;36550;50.472;19.744;2023-06-26T13:56:44;97901.41;;;25.50;44.24
50302;BME280;36550;50.472;19.744;2023-06-26T13:59:28;97897.44;;;25.44;44.55
50302;BME280;36550;50.472;19.744;2023-06-26T14:02:12;97895.57;;;25.36;44.64
50302;BME280;36550;50.472;19.744;2023-06-26T14:04:56;97892.30;;;25.27;45.04
50302;BME280;36550;50.472;19.744;2023-06-26T14:07:40;97891.30;;;25.21;45.27
50302;BME280;36550;50.472;19.744;2023-06-26T14:10:24;97886.84;;;25.14;45.28
50302;BME280;36550;50.472;19.744;2023-06-26T14:13:08;97885.59;;;25.08;45.13
50302;BME280;36550;50.472;19.744;2023-06-26T14:15:52;97880.38;;;25.06;45.02
50302;BME280;36550;50.472;19.744;2023-06-26T14:18:37;97879.41;;;25.02;44.76
50302;BME280;36550;50.472;19.744;2023-06-26T14:21:21;97877.06;;;24.99;44.95
50302;BME280;36550;50.472;19.744;2023-06-26T14:24:05;97872.14;;;24.96;45.37
50302;BME280;36550;50.472;19.744;2023-06-26T14:26:50;97874.02;;;24.93;45.66